sim
Sign-in with your pilot id or email,
or register
Callsign
Passwort

Schedule Details

Flight Number: RYR1102
Departure: Fuerteventura Airport (GCFV) at 11:05
Arrival: Berlin Schonefeld Airport (EDDB) at 16:05
Route: Ryanair Passenger Schedule. Enter filed route here before submitting Pirep.

Weather Information
Getting current METAR information for GCFV 231100Z 06015KT 9999 FEW020 24/19 Q1017
Getting current METAR information for EDDB 231050Z 29009KT 260V330 9999 FEW039 27/16 Q1021 NOSIG

Schedule Frequency

Route Map